Chaplin, Canada
Current Conditions -  °F | °C
As of 10:00 PM on Tuesday 27 Jan 2015 (Local Time) from CYYN Reporting Station
Overcast Overcast  
Wind Chill: -2°   Ceiling: 22000
Heat Index:   Visibility: 9mi
Dew Point:   Wind: 8mph
Humidity: 87%   Direction: 180°S
Pressure: 29.71"   Gusts: NA
Location:  50.47°N, 106.67°W
Report Text: CYYN 280400Z AUTO 18007KT 9SM FEW190 OVC220 02/M00 A2971 RMK SLP086
Loading
Personal Weather Stations






























Interactive Weather Map New forecast layout! Learn more

10-Day Weather Forecast

Advertisements
Track Severe Weather on mobile